Time;durP1;ratioP1;P1;durP2;ratioP2;P2;SDS_P1;SDS_P2;PMS_P1;PMS_P2;Temp;Humidity;BMP_temperature;BMP_pressure;BME280_temperature;BME280_humidity;BME280_pressure;Samples;Min_cycle;Max_cycle;Signal;HPM_P1;HPM_P2
2022/02/04 00:07:29;;;;;;;1.20;1.10;;;17.50;64.90;;;;;;10422603;28;20224;-67
2022/02/04 00:24:14;;;;;;;1.20;1.10;;;17.50;64.30;;;;;;10448823;28;20738;-67
2022/02/04 00:29:44;;;;;;;1.10;1.00;;;17.50;64.30;;;;;;10425381;28;20225;-68
2022/02/04 00:35:18;;;;;;;1.03;0.93;;;17.50;64.30;;;;;;10408938;28;20623;-68
2022/02/04 00:40:43;;;;;;;1.10;1.00;;;17.50;64.30;;;;;;10408804;28;20190;-68
2022/02/04 00:46:11;;;;;;;1.27;1.10;;;17.50;64.30;;;;;;10432124;22;20258;-68
2022/02/04 00:51:42;;;;;;;0.90;0.80;;;17.50;64.30;;;;;;10392700;28;20197;-68
2022/02/04 00:57:13;;;;;;;0.80;0.80;;;17.50;64.30;;;;;;10396378;28;20698;-68
2022/02/04 01:30:57;;;;;;;1.07;0.90;;;17.50;64.30;;;;;;10385493;28;20226;-68
2022/02/04 01:36:19;;;;;;;0.90;0.90;;;17.50;64.30;;;;;;10364854;28;20219;-68
2022/02/04 01:41:42;;;;;;;1.10;1.00;;;17.50;64.20;;;;;;10381957;28;20198;-69
2022/02/04 01:47:05;;;;;;;1.00;0.90;;;17.50;64.20;;;;;;10340207;28;20598;-69
2022/02/04 01:52:27;;;;;;;1.33;1.00;;;17.50;64.20;;;;;;10334165;28;20203;-68
2022/02/04 01:57:51;;;;;;;1.40;1.00;;;17.50;64.20;;;;;;10333281;28;20223;-68
2022/02/04 02:03:13;;;;;;;1.40;0.97;;;17.50;64.20;;;;;;10368233;28;20198;-68
2022/02/04 02:08:39;;;;;;;0.80;0.80;;;17.50;64.20;;;;;;10370681;28;20225;-68
2022/02/04 02:14:05;;;;;;;0.87;0.80;;;17.50;64.20;;;;;;10373315;28;20198;-67
2022/02/04 02:48:07;;;;;;;1.10;1.00;;;17.50;64.20;;;;;;10314240;28;20227;-68
2022/02/04 02:53:59;;;;;;;1.30;1.20;;;17.50;64.20;;;;;;10331117;28;20245;-66
2022/02/04 02:59:26;;;;;;;1.10;1.00;;;17.50;64.20;;;;;;10333701;28;20278;-68
2022/02/04 03:04:48;;;;;;;1.03;1.00;;;17.50;64.20;;;;;;10370944;28;20251;-68
2022/02/04 03:10:10;;;;;;;1.37;1.03;;;17.50;64.20;;;;;;10363144;28;20225;-68
2022/02/04 03:15:34;;;;;;;1.20;1.10;;;17.50;64.10;;;;;;10329937;28;20226;-69
2022/02/04 03:21:01;;;;;;;1.40;1.30;;;17.50;64.10;;;;;;10329704;28;20191;-69
2022/02/04 03:26:30;;;;;;;0.87;0.87;;;17.50;64.10;;;;;;10366085;28;20229;-68
2022/02/04 03:31:59;;;;;;;0.87;0.87;;;17.50;64.10;;;;;;10364421;28;20674;-68
2022/02/04 03:37:21;;;;;;;1.30;1.20;;;17.50;64.10;;;;;;10329948;28;20256;-68
2022/02/04 03:42:44;;;;;;;0.90;0.90;;;17.50;64.10;;;;;;10379511;28;20222;-68
2022/02/04 03:48:08;;;;;;;1.17;0.90;;;17.50;64.10;;;;;;10410962;28;20225;-69
2022/02/04 03:53:30;;;;;;;1.20;1.00;;;17.50;64.10;;;;;;10396855;28;20202;-68
2022/02/04 03:58:52;;;;;;;1.20;0.90;;;17.50;64.10;;;;;;10329390;28;20213;-69
2022/02/04 04:04:15;;;;;;;1.63;1.00;;;17.50;64.10;;;;;;10330365;28;20222;-68
2022/02/04 04:09:43;;;;;;;1.10;0.83;;;17.50;64.10;;;;;;10348795;28;20686;-68
2022/02/04 04:15:08;;;;;;;1.70;1.13;;;17.40;64.10;;;;;;10369232;28;20218;-68
2022/02/04 04:20:33;;;;;;;1.80;1.00;;;17.50;64.10;;;;;;10368774;28;20277;-68
2022/02/04 04:25:55;;;;;;;1.13;0.97;;;17.50;64.10;;;;;;10386347;28;20810;-69
2022/02/04 04:31:18;;;;;;;0.93;0.90;;;17.50;64.10;;;;;;10416280;28;20210;-69
2022/02/04 04:36:42;;;;;;;1.00;0.90;;;17.50;64.10;;;;;;10416904;28;20210;-68
2022/02/04 04:42:14;;;;;;;1.20;1.10;;;17.50;64.10;;;;;;10383623;28;20341;-69
2022/02/04 05:27:58;;;;;;;1.47;1.13;;;17.50;64.10;;;;;;10378141;28;20514;-69
2022/02/04 05:33:20;;;;;;;1.00;0.93;;;17.50;64.10;;;;;;10404720;28;20319;-68
2022/02/04 05:38:42;;;;;;;1.00;0.90;;;17.50;64.10;;;;;;10330301;28;20211;-68
2022/02/04 05:44:10;;;;;;;1.00;0.90;;;17.50;64.00;;;;;;10367446;28;20210;-68
2022/02/04 05:49:35;;;;;;;1.03;0.93;;;17.60;64.10;;;;;;10369770;28;20249;-68
2022/02/04 05:55:12;;;;;;;0.80;0.80;;;17.60;64.10;;;;;;10333764;28;20234;-68
2022/02/04 06:00:42;;;;;;;1.00;0.90;;;17.50;64.00;;;;;;10345853;28;20337;-68
2022/02/04 06:06:24;;;;;;;1.10;0.90;;;17.60;64.10;;;;;;10371890;28;20736;-69
2022/02/04 06:11:57;;;;;;;1.10;0.90;;;17.60;64.10;;;;;;10370843;28;20206;-69
2022/02/04 06:22:59;;;;;;;0.90;0.90;;;17.60;64.10;;;;;;10379779;28;20201;-69
2022/02/04 06:28:22;;;;;;;1.10;1.00;;;17.60;64.10;;;;;;10347128;28;20215;-69
2022/02/04 06:33:45;;;;;;;0.90;0.90;;;17.60;64.10;;;;;;10342789;28;20197;-69
2022/02/04 06:39:08;;;;;;;0.87;0.87;;;17.50;64.10;;;;;;10367117;28;20199;-69
2022/02/04 06:44:30;;;;;;;0.90;0.90;;;17.60;64.10;;;;;;10371049;28;20223;-69
2022/02/04 06:49:53;;;;;;;2.10;0.80;;;17.60;64.10;;;;;;10367894;28;20214;-69
2022/02/04 06:55:16;;;;;;;1.20;1.10;;;17.60;64.10;;;;;;10359683;28;20227;-67
2022/02/04 07:00:39;;;;;;;1.40;1.10;;;17.50;64.00;;;;;;10357006;28;20204;-66
2022/02/04 07:06:04;;;;;;;1.70;1.60;;;17.50;63.80;;;;;;10339844;28;20223;-68
2022/02/04 07:11:48;;;;;;;2.10;1.60;;;17.50;64.00;;;;;;10341841;28;20353;-67
2022/02/04 07:17:18;;;;;;;1.30;1.10;;;17.50;64.20;;;;;;10330808;28;20250;-66
2022/02/04 07:22:42;;;;;;;2.07;1.73;;;17.50;64.40;;;;;;10365224;28;20198;-66
2022/02/04 07:28:04;;;;;;;1.60;1.50;;;17.50;64.40;;;;;;10389900;28;20218;-68
2022/02/04 07:33:38;;;;;;;2.90;1.63;;;17.50;64.50;;;;;;10398802;28;20202;-67
2022/02/04 07:44:42;;;;;;;1.93;1.67;;;17.50;64.70;;;;;;10346533;28;20221;-67
2022/02/04 07:50:05;;;;;;;1.57;1.47;;;17.40;64.70;;;;;;10368886;28;20226;-67
2022/02/04 07:55:29;;;;;;;1.60;1.50;;;17.40;64.80;;;;;;10365889;28;20602;-67
2022/02/04 08:00:51;;;;;;;2.23;1.83;;;17.40;64.80;;;;;;10344138;28;20202;-66
2022/02/04 08:06:20;;;;;;;1.50;1.40;;;17.40;64.90;;;;;;10377644;28;20222;-67
2022/02/04 08:12:08;;;;;;;1.50;1.40;;;17.40;64.90;;;;;;10376159;28;20305;-67
2022/02/04 08:18:04;;;;;;;1.97;1.50;;;17.40;64.90;;;;;;10346035;28;20261;-67
2022/02/04 08:29:37;;;;;;;1.87;1.50;;;17.40;65.10;;;;;;10394222;28;20221;-68
2022/02/04 08:35:20;;;;;;;1.50;1.40;;;17.40;65.10;;;;;;10357810;28;20226;-67
2022/02/04 08:46:57;;;;;;;1.67;1.40;;;17.40;65.10;;;;;;10375552;28;20708;-68
2022/02/04 08:52:36;;;;;;;1.70;1.60;;;17.40;65.20;;;;;;10363243;28;20555;-67
2022/02/04 08:58:13;;;;;;;1.83;1.43;;;17.40;65.30;;;;;;10378900;28;20206;-67
2022/02/04 09:03:48;;;;;;;1.80;1.60;;;17.40;65.30;;;;;;10366169;28;20198;-67
2022/02/04 09:09:15;;;;;;;2.23;1.53;;;17.40;65.30;;;;;;10352320;28;20214;-68
2022/02/04 09:20:28;;;;;;;1.50;1.40;;;17.40;65.30;;;;;;10427780;22;20303;-67
2022/02/04 09:25:50;;;;;;;1.60;1.50;;;17.40;65.30;;;;;;10411451;28;20202;-67
2022/02/04 09:31:13;;;;;;;2.73;1.37;;;17.40;65.30;;;;;;10393182;28;20218;-67
2022/02/04 09:36:37;;;;;;;1.87;1.67;;;17.40;65.40;;;;;;10372513;28;20202;-67
2022/02/04 09:41:59;;;;;;;1.77;1.53;;;17.40;65.40;;;;;;10371047;28;20656;-67
2022/02/04 09:47:24;;;;;;;1.30;1.20;;;17.40;65.40;;;;;;10369940;28;20700;-67
2022/02/04 10:10:40;;;;;;;1.60;1.50;;;17.40;65.50;;;;;;10343788;28;20318;-67
2022/02/04 10:21:56;;;;;;;1.30;1.13;;;17.50;65.50;;;;;;10370099;28;20668;-67
2022/02/04 10:27:20;;;;;;;4.23;1.77;;;17.60;65.30;;;;;;10369602;28;20221;-67
2022/02/04 10:32:45;;;;;;;2.37;1.60;;;17.50;65.40;;;;;;10330175;28;20195;-67
2022/02/04 10:38:15;;;;;;;2.10;1.50;;;17.50;65.40;;;;;;10329726;28;20210;-67
2022/02/04 10:43:56;;;;;;;3.23;1.30;;;17.40;65.40;;;;;;10361768;28;20321;-67
2022/02/04 10:49:34;;;;;;;1.70;1.60;;;17.50;65.50;;;;;;10353067;28;20302;-67
2022/02/04 10:55:33;;;;;;;1.80;1.37;;;17.40;65.50;;;;;;10360786;28;20194;-67
2022/02/04 11:01:11;;;;;;;1.33;1.20;;;17.50;65.50;;;;;;10343253;28;20692;-67
2022/02/04 11:06:49;;;;;;;1.50;1.33;;;17.40;65.50;;;;;;10369815;28;20556;-67
2022/02/04 11:21:47;;;;;;;2.20;1.40;;;17.40;65.50;;;;;;10349137;28;20218;-68
2022/02/04 11:35:20;;;;;;;1.63;1.30;;;17.40;65.50;;;;;;10335237;28;20210;-68
2022/02/04 11:52:37;;;;;;;1.30;0.90;;;17.40;65.40;;;;;;10364688;28;20226;-69
2022/02/04 11:58:03;;;;;;;1.43;1.23;;;17.50;65.30;;;;;;10366623;28;20234;-67
2022/02/04 12:03:34;;;;;;;1.73;1.20;;;17.40;65.50;;;;;;10367248;28;20281;-67
2022/02/04 12:09:35;;;;;;;1.57;1.07;;;17.40;65.50;;;;;;10366028;28;20214;-66
2022/02/04 12:15:34;;;;;;;0.90;0.90;;;17.40;65.30;;;;;;10367801;28;20194;-67
2022/02/04 12:20:58;;;;;;;1.03;0.93;;;17.40;65.30;;;;;;10352010;28;20308;-68
2022/02/04 12:26:29;;;;;;;0.80;0.80;;;17.40;65.50;;;;;;10350132;28;20191;-68
2022/02/04 12:31:52;;;;;;;1.00;0.80;;;17.40;65.50;;;;;;10367410;28;20227;-66
2022/02/04 12:37:16;;;;;;;2.23;0.90;;;17.40;65.50;;;;;;10328849;28;20963;-67
2022/02/04 12:42:43;;;;;;;1.23;1.10;;;17.50;65.50;;;;;;10325178;28;20195;-68
2022/02/04 12:48:08;;;;;;;2.33;1.10;;;17.40;65.50;;;;;;10343885;28;20229;-67
2022/02/04 12:53:31;;;;;;;1.05;0.82;;;17.40;65.40;;;;;;10369894;28;20581;-66
2022/02/04 12:59:24;;;;;;;0.93;0.70;;;17.60;64.80;;;;;;10361523;28;20215;-66
2022/02/04 13:10:31;;;;;;;1.00;0.90;;;17.50;65.30;;;;;;10364971;28;20234;-66
2022/02/04 13:15:55;;;;;;;1.53;1.03;;;17.50;65.30;;;;;;10332263;28;20195;-67
2022/02/04 13:21:17;;;;;;;1.00;0.90;;;17.50;65.40;;;;;;10367269;28;20544;-67
2022/02/04 13:26:40;;;;;;;2.03;0.90;;;17.50;65.40;;;;;;10370886;28;20575;-67
2022/02/04 13:32:22;;;;;;;1.37;0.77;;;17.50;65.40;;;;;;10366093;28;20323;-66
2022/02/04 13:37:50;;;;;;;0.80;0.80;;;17.60;65.40;;;;;;10368750;28;20733;-66
2022/02/04 13:43:32;;;;;;;0.90;0.80;;;17.60;65.50;;;;;;10368977;28;20711;-67
2022/02/04 13:49:03;;;;;;;1.00;0.90;;;17.60;65.30;;;;;;10339083;28;20215;-67
2022/02/04 14:00:24;;;;;;;1.07;0.90;;;17.60;65.50;;;;;;10366462;28;20593;-66
2022/02/04 14:05:55;;;;;;;2.03;0.70;;;17.60;65.50;;;;;;10370302;28;20190;-66
2022/02/04 14:11:29;;;;;;;1.33;0.83;;;17.60;65.50;;;;;;10367313;28;20585;-68
2022/02/04 14:16:53;;;;;;;0.70;0.70;;;17.70;65.50;;;;;;10370691;28;20226;-68
2022/02/04 14:22:18;;;;;;;1.57;1.03;;;17.60;65.50;;;;;;10369628;28;20202;-68
2022/02/04 14:27:40;;;;;;;1.53;0.87;;;17.60;65.50;;;;;;10370227;28;20225;-68
2022/02/04 14:33:10;;;;;;;0.70;0.70;;;17.60;65.50;;;;;;10368370;28;20577;-68
2022/02/04 14:50:35;;;;;;;1.70;0.83;;;17.60;65.40;;;;;;10358431;28;20585;-68
2022/02/04 15:01:47;;;;;;;0.90;0.83;;;17.70;65.40;;;;;;10347962;28;20703;-67
2022/02/04 15:07:11;;;;;;;0.90;0.60;;;17.70;65.40;;;;;;10369686;28;20207;-67
2022/02/04 15:12:34;;;;;;;1.07;0.40;;;17.70;65.50;;;;;;10367685;28;20222;-67
2022/02/04 15:17:56;;;;;;;0.57;0.57;;;17.70;65.40;;;;;;10364763;28;20218;-67
2022/02/04 15:23:19;;;;;;;0.80;0.70;;;17.70;65.50;;;;;;10352902;28;20203;-67
2022/02/04 15:28:45;;;;;;;1.23;0.60;;;17.60;65.40;;;;;;10362570;28;20219;-67
2022/02/04 15:34:08;;;;;;;1.27;0.80;;;17.70;65.40;;;;;;10367071;28;20201;-67
2022/02/04 15:39:30;;;;;;;2.80;0.83;;;17.70;65.40;;;;;;10337989;28;20308;-67
2022/02/04 15:45:13;;;;;;;0.47;0.40;;;17.60;65.30;;;;;;10394507;28;20691;-67
2022/02/04 15:50:40;;;;;;;0.80;0.70;;;17.60;65.30;;;;;;10367256;28;20355;-67
2022/02/04 16:01:58;;;;;;;0.60;0.57;;;17.60;65.60;;;;;;10365462;28;20185;-67
2022/02/04 16:07:22;;;;;;;1.07;0.70;;;17.50;65.70;;;;;;10366189;28;20217;-67
2022/02/04 16:12:53;;;;;;;0.63;0.60;;;17.50;65.80;;;;;;10366609;28;20218;-68
2022/02/04 16:18:20;;;;;;;0.60;0.60;;;17.50;65.80;;;;;;10364521;28;20223;-67
2022/02/04 16:29:22;;;;;;;0.50;0.50;;;17.50;65.90;;;;;;10373984;28;20226;-66
2022/02/04 16:34:53;;;;;;;1.20;0.63;;;17.50;65.90;;;;;;10389049;22;20233;-69
2022/02/04 16:40:17;;;;;;;0.80;0.50;;;17.50;65.90;;;;;;10403960;28;20190;-67
2022/02/04 16:45:39;;;;;;;0.93;0.60;;;17.50;66.00;;;;;;10414948;28;20217;-67
2022/02/04 16:51:04;;;;;;;0.33;0.33;;;17.50;66.10;;;;;;10416094;28;20221;-71
2022/02/04 16:56:26;;;;;;;0.63;0.50;;;17.60;66.10;;;;;;10428141;28;20275;-70
2022/02/04 17:01:49;;;;;;;0.83;0.50;;;17.60;65.90;;;;;;10438780;28;20243;-70
2022/02/04 17:07:19;;;;;;;0.77;0.67;;;17.70;65.80;;;;;;10422992;28;20210;-70
2022/02/04 17:12:42;;;;;;;1.13;0.53;;;17.70;65.70;;;;;;10415092;28;20206;-70
2022/02/04 17:18:06;;;;;;;0.83;0.63;;;17.70;65.60;;;;;;10385232;28;20594;-70
2022/02/04 17:23:39;;;;;;;0.70;0.53;;;17.70;65.60;;;;;;10395098;28;20205;-68
2022/02/04 17:29:01;;;;;;;0.60;0.50;;;17.70;65.50;;;;;;10409693;28;20214;-69
2022/02/04 17:34:24;;;;;;;0.40;0.40;;;17.70;65.60;;;;;;10411976;28;20576;-67
2022/02/04 17:39:50;;;;;;;0.50;0.40;;;17.60;65.60;;;;;;10418550;28;20197;-69
2022/02/04 17:45:17;;;;;;;0.53;0.50;;;17.70;65.70;;;;;;10412441;28;20706;-69
2022/02/04 17:50:49;;;;;;;0.57;0.40;;;17.70;65.70;;;;;;10414847;28;20280;-69
2022/02/04 17:56:27;;;;;;;0.50;0.43;;;17.70;65.70;;;;;;10425803;28;20221;-69
2022/02/04 18:01:59;;;;;;;1.30;0.50;;;17.70;65.70;;;;;;10414065;28;20573;-70
2022/02/04 18:07:24;;;;;;;0.63;0.50;;;17.60;65.50;;;;;;10378620;28;20213;-70
2022/02/04 18:12:47;;;;;;;0.50;0.50;;;17.70;65.60;;;;;;10412688;28;20729;-67
2022/02/04 18:18:10;;;;;;;0.50;0.50;;;17.70;65.50;;;;;;10413445;28;20225;-68
2022/02/04 18:23:32;;;;;;;0.50;0.50;;;17.70;65.30;;;;;;10402984;28;20198;-68
2022/02/04 18:28:56;;;;;;;0.50;0.50;;;17.70;65.40;;;;;;10407999;28;20799;-68
2022/02/04 18:34:18;;;;;;;0.40;0.40;;;17.60;65.40;;;;;;10412037;28;20210;-68
2022/02/04 18:40:03;;;;;;;0.60;0.60;;;17.60;65.50;;;;;;10407188;28;20194;-68
2022/02/04 18:45:29;;;;;;;0.93;0.50;;;17.60;65.50;;;;;;10386806;28;20233;-68
2022/02/04 18:51:01;;;;;;;0.93;0.60;;;17.60;65.60;;;;;;10365888;28;20217;-68
2022/02/04 18:56:34;;;;;;;0.50;0.50;;;17.60;65.60;;;;;;10366126;28;20234;-68
2022/02/04 19:01:58;;;;;;;0.70;0.43;;;17.60;65.70;;;;;;10385870;28;20209;-69
2022/02/04 19:07:29;;;;;;;2.00;0.40;;;17.60;65.90;;;;;;10403533;28;20213;-68
2022/02/04 19:12:55;;;;;;;0.67;0.50;;;17.60;65.50;;;;;;10397601;28;20229;-68
2022/02/04 19:18:25;;;;;;;0.40;0.40;;;17.60;65.60;;;;;;10406913;28;20221;-68
2022/02/04 19:23:50;;;;;;;1.60;0.40;;;17.60;65.70;;;;;;10406031;28;20577;-67
2022/02/04 19:29:12;;;;;;;0.90;0.40;;;17.60;65.90;;;;;;10403146;28;20789;-68
2022/02/04 19:34:36;;;;;;;1.27;0.60;;;17.70;65.90;;;;;;10394911;28;21085;-67
2022/02/04 19:39:58;;;;;;;0.60;0.30;;;18.60;63.10;;;;;;10404227;28;20201;-70
2022/02/04 19:45:26;;;;;;;0.83;0.60;;;18.10;64.80;;;;;;10407686;28;20225;-69
2022/02/04 19:51:02;;;;;;;1.33;0.80;;;17.90;65.30;;;;;;10403573;28;20910;-68
2022/02/04 20:14:31;;;;;;;0.73;0.50;;;17.60;65.30;;;;;;10389287;28;20217;-69
2022/02/04 20:25:04;;;;;;;0.70;0.40;;;17.60;65.20;;;;;;10398981;28;20213;-69
2022/02/04 20:30:27;;;;;;;2.17;0.60;;;17.50;65.10;;;;;;10400240;28;20205;-69
2022/02/04 20:35:49;;;;;;;0.87;0.40;;;17.50;65.10;;;;;;10405641;28;20252;-69
2022/02/04 20:41:14;;;;;;;0.73;0.50;;;17.50;65.20;;;;;;10410105;28;20221;-69
2022/02/04 20:46:36;;;;;;;0.50;0.50;;;17.50;65.20;;;;;;10408649;28;20558;-68
2022/02/04 20:51:59;;;;;;;1.10;0.50;;;17.50;65.10;;;;;;10408301;28;20221;-68
2022/02/04 20:57:22;;;;;;;0.60;0.53;;;17.60;65.20;;;;;;10408905;28;20720;-68
2022/02/04 21:02:44;;;;;;;1.13;0.50;;;17.60;65.20;;;;;;10405011;28;20198;-68
2022/02/04 21:13:52;;;;;;;1.00;0.50;;;17.50;65.10;;;;;;10416914;28;20295;-68
2022/02/04 21:19:14;;;;;;;0.97;0.50;;;17.50;65.10;;;;;;10415568;28;20198;-68
2022/02/04 21:24:36;;;;;;;0.67;0.50;;;17.50;65.10;;;;;;10413086;28;20225;-68
2022/02/04 21:30:01;;;;;;;0.77;0.40;;;17.50;65.00;;;;;;10412187;28;20268;-68
2022/02/04 21:41:03;;;;;;;1.50;0.47;;;17.50;65.00;;;;;;10417381;28;20645;-68
2022/02/04 21:46:29;;;;;;;0.57;0.40;;;17.50;65.10;;;;;;10413518;28;20222;-69
2022/02/04 21:51:51;;;;;;;1.10;0.53;;;17.50;65.00;;;;;;10417849;28;20224;-68
2022/02/04 21:57:13;;;;;;;1.27;0.40;;;17.50;65.00;;;;;;10414944;28;20307;-68
2022/02/04 22:02:37;;;;;;;1.17;0.40;;;17.50;64.90;;;;;;10444491;28;20251;-68
2022/02/04 22:08:02;;;;;;;0.60;0.47;;;17.50;65.00;;;;;;10454787;28;20679;-69
2022/02/04 22:13:32;;;;;;;0.80;0.60;;;17.50;65.00;;;;;;10456210;28;20220;-68
2022/02/04 22:24:35;;;;;;;1.00;0.70;;;17.40;65.00;;;;;;10402687;28;20217;-68
2022/02/04 22:30:01;;;;;;;2.03;0.77;;;17.40;64.90;;;;;;10413339;28;20217;-68
2022/02/04 22:35:34;;;;;;;1.40;0.60;;;17.50;65.00;;;;;;10421339;22;20276;-66
2022/02/04 22:52:33;;;;;;;0.77;0.60;;;17.50;64.90;;;;;;10403064;28;20229;-66
2022/02/04 22:58:04;;;;;;;1.27;0.60;;;17.40;64.80;;;;;;10409951;28;20213;-67
2022/02/04 23:03:31;;;;;;;0.93;0.50;;;17.40;64.80;;;;;;10406783;28;20614;-67
2022/02/04 23:08:55;;;;;;;1.07;0.67;;;17.40;64.80;;;;;;10405243;28;20666;-67
2022/02/04 23:14:22;;;;;;;2.23;0.50;;;17.40;64.80;;;;;;10409489;28;20221;-67
2022/02/04 23:19:52;;;;;;;1.37;0.50;;;17.40;64.70;;;;;;10409351;28;20586;-67
2022/02/04 23:25:40;;;;;;;0.60;0.40;;;17.40;64.70;;;;;;10409406;28;20568;-67
2022/02/04 23:31:39;;;;;;;0.80;0.60;;;17.40;64.60;;;;;;10409467;28;20259;-67
2022/02/04 23:54:00;;;;;;;1.27;0.50;;;17.40;64.70;;;;;;10409192;28;20210;-67
